Uccle, Belgium
Current Conditions -  °F | °C
As of 12:50 PM on Wednesday 28 Jan 2015 (Local Time) from EBBR Reporting Station
Broken Clouds Broken Clouds  
Wind Chill: 34°   Ceiling: 2300
Heat Index: 43°   Visibility: 6mi
Dew Point: 37°   Wind: 23mph
Humidity: 81%   Direction: 210°SSW
Pressure: 29.65"   Gusts: 37mph
Location:  50.79°N, 4.36°E
Report Text: EBBR 281150Z 21020G32KT 9999 BKN023 06/03 Q1004 NOSIG
Loading
Personal Weather Stations






























Interactive Weather Map New forecast layout! Learn more

10-Day Weather Forecast

Advertisements
Track Severe Weather on mobile